Time;durP1;ratioP1;P1;durP2;ratioP2;P2;SDS_P1;SDS_P2;PMS_P1;PMS_P2;Temp;Humidity;BMP_temperature;BMP_pressure;BME280_temperature;BME280_humidity;BME280_pressure;Samples;Min_cycle;Max_cycle;Signal;HPM_P1;HPM_P2
2023/10/11 00:01:47;;;;;;;3.00;1.45;;;;;;;13.90;59.95;100450.03;5311056;26;20087;-93
2023/10/11 00:04:23;;;;;;;0.82;0.82;;;;;;;13.94;59.94;100447.25;5310818;26;20409;-92
2023/10/11 00:06:50;;;;;;;1.55;1.45;;;;;;;13.97;59.95;100443.72;5331408;26;20096;-91
2023/10/11 00:09:16;;;;;;;0.70;0.30;;;;;;;13.92;59.94;100446.47;5311013;26;20059;-93
2023/10/11 00:11:42;;;;;;;2.20;1.75;;;;;;;13.89;59.95;100441.34;5311453;26;20372;-91
2023/10/11 00:14:07;;;;;;;1.02;1.00;;;;;;;13.80;59.94;100441.66;5311111;26;20110;-93
2023/10/11 00:16:35;;;;;;;0.30;0.30;;;;;;;13.86;59.93;100437.97;5310787;26;20082;-94
2023/10/11 00:19:01;;;;;;;0.10;0.10;;;;;;;13.71;59.93;100439.34;5311907;26;20055;-93
2023/10/11 00:21:41;;;;;;;1.87;1.55;;;;;;;13.60;59.92;100446.72;5329313;26;20404;-93
2023/10/11 00:24:09;;;;;;;0.45;0.45;;;;;;;13.60;59.92;100439.72;5330970;26;20713;-93
2023/10/11 00:26:35;;;;;;;0.03;0.03;;;;;;;13.61;59.93;100433.56;5311816;26;20378;-94
2023/10/11 00:29:01;;;;;;;1.08;1.02;;;;;;;13.66;59.93;100438.66;5311058;26;20097;-94
2023/10/11 00:31:26;;;;;;;1.65;1.10;;;;;;;13.63;59.92;100437.00;5311071;26;20064;-93
2023/10/11 00:33:53;;;;;;;0.93;0.88;;;;;;;13.57;59.92;100445.06;5310852;26;20192;-93
2023/10/11 00:36:26;;;;;;;0.60;0.50;;;;;;;13.44;59.92;100447.19;5311221;26;20052;-94
2023/10/11 00:38:51;;;;;;;3.10;1.98;;;;;;;13.41;59.91;100442.06;5313118;26;20122;-95
2023/10/11 00:41:20;;;;;;;0.57;0.57;;;;;;;13.30;59.91;100438.97;5310875;26;20109;-94
2023/10/11 00:43:52;;;;;;;1.67;1.58;;;;;;;13.35;59.91;100442.28;5312241;26;20063;-94
2023/10/11 00:46:19;;;;;;;1.52;0.75;;;;;;;13.44;59.92;100435.88;5311651;26;20116;-95
2023/10/11 00:49:08;;;;;;;1.08;0.98;;;;;;;13.42;59.92;100432.47;5310967;26;20062;-93
2023/10/11 00:51:36;;;;;;;5.97;1.23;;;;;;;13.26;59.90;100439.12;5332789;26;20063;-94
2023/10/11 00:54:03;;;;;;;0.30;0.22;;;;;;;13.20;59.91;100437.53;5317465;26;20055;-93
2023/10/11 00:56:34;;;;;;;4.00;1.98;;;;;;;13.05;59.90;100438.84;5311897;26;20783;-95
2023/10/11 00:59:10;;;;;;;5.35;1.45;;;;;;;13.04;59.90;100426.69;5312628;26;20389;-94
2023/10/11 01:01:58;;;;;;;1.65;1.48;;;;;;;13.06;59.90;100430.13;5312938;26;20051;-93
2023/10/11 01:04:27;;;;;;;0.98;0.98;;;;;;;13.05;59.90;100428.41;5332882;26;20064;-93
2023/10/11 01:06:53;;;;;;;0.10;0.10;;;;;;;12.88;59.88;100428.91;5311289;26;20056;-92
2023/10/11 01:09:24;;;;;;;1.17;0.73;;;;;;;12.91;59.89;100420.97;5329357;26;20105;-94
2023/10/11 01:11:49;;;;;;;0.70;0.70;;;;;;;12.93;59.89;100413.09;5313243;26;20393;-94
2023/10/11 01:14:15;;;;;;;3.62;3.30;;;;;;;12.87;59.88;100424.59;5310903;26;20096;-94
2023/10/11 01:16:41;;;;;;;0.85;0.85;;;;;;;12.89;59.88;100427.16;5329507;26;20063;-94
2023/10/11 01:19:11;;;;;;;5.70;1.65;;;;;;;13.03;59.89;100432.81;5311185;26;20048;-92
2023/10/11 01:21:41;;;;;;;0.83;0.70;;;;;;;12.87;59.89;100427.22;5330123;26;20051;-93
2023/10/11 01:24:10;;;;;;;0.75;0.75;;;;;;;12.90;59.89;100428.88;5312221;26;20156;-93
2023/10/11 01:26:36;;;;;;;0.65;0.65;;;;;;;12.83;59.89;100437.81;5329698;26;20718;-92
2023/10/11 01:29:01;;;;;;;1.90;1.08;;;;;;;12.84;59.88;100436.91;5311523;26;20067;-93
2023/10/11 01:31:32;;;;;;;0.82;0.82;;;;;;;12.84;59.88;100442.12;5310831;26;20116;-92
2023/10/11 01:33:58;;;;;;;1.17;1.05;;;;;;;12.97;59.89;100425.16;5330340;26;21249;-94
2023/10/11 01:36:23;;;;;;;2.67;1.92;;;;;;;12.94;59.89;100420.03;5310552;26;20060;-93
2023/10/11 01:38:49;;;;;;;1.77;1.37;;;;;;;12.94;59.89;100427.88;5310986;26;20179;-93
2023/10/11 01:41:21;;;;;;;1.08;1.08;;;;;;;12.89;59.88;100437.59;5311000;26;20310;-94
2023/10/11 01:43:49;;;;;;;0.52;0.50;;;;;;;12.99;59.89;100430.34;5311593;26;20059;-94
2023/10/11 01:46:21;;;;;;;1.08;0.82;;;;;;;12.98;59.89;100429.47;5330376;26;20051;-95
2023/10/11 01:48:47;;;;;;;0.73;0.73;;;;;;;12.90;59.89;100436.72;5313639;26;20093;-93
2023/10/11 01:51:21;;;;;;;1.08;1.05;;;;;;;12.87;59.88;100445.50;5311560;26;23833;-94
2023/10/11 01:53:46;;;;;;;1.67;1.58;;;;;;;12.84;59.88;100444.75;5314797;26;20420;-95
2023/10/11 01:56:13;;;;;;;0.50;0.50;;;;;;;12.84;59.89;100448.22;5338156;26;20097;-95
2023/10/11 01:58:42;;;;;;;1.75;0.75;;;;;;;12.90;59.89;100444.53;5312832;26;20111;-93
2023/10/11 02:01:22;;;;;;;1.42;1.33;;;;;;;12.83;59.88;100440.41;5312683;26;20666;-93
2023/10/11 02:03:53;;;;;;;1.17;1.02;;;;;;;12.90;59.89;100436.72;5312316;26;20079;-94
2023/10/11 02:06:19;;;;;;;1.17;1.15;;;;;;;12.81;59.88;100437.00;5313545;26;20068;-93
2023/10/11 02:08:45;;;;;;;1.85;0.80;;;;;;;12.85;59.88;100428.16;5311984;26;20075;-94
2023/10/11 02:11:10;;;;;;;0.90;0.85;;;;;;;12.86;59.88;100430.72;5311930;26;20408;-94
2023/10/11 02:13:39;;;;;;;0.75;0.43;;;;;;;12.86;59.89;100432.47;5349280;26;20345;-96
2023/10/11 02:16:09;;;;;;;1.05;0.95;;;;;;;12.88;59.88;100428.91;5313220;26;20052;-94
2023/10/11 02:18:35;;;;;;;2.72;0.43;;;;;;;12.83;59.88;100438.66;5313111;26;20055;-95
2023/10/11 02:21:06;;;;;;;1.27;1.20;;;;;;;12.82;59.89;100438.72;5311874;26;20470;-94
2023/10/11 02:23:37;;;;;;;0.52;0.30;;;;;;;12.79;59.88;100437.03;5313507;26;20052;-94
2023/10/11 02:26:04;;;;;;;0.20;0.20;;;;;;;12.87;59.88;100434.19;5313978;26;20063;-94
2023/10/11 02:28:29;;;;;;;0.75;0.70;;;;;;;12.97;59.89;100435.59;5312204;26;20122;-95
2023/10/11 02:30:55;;;;;;;0.70;0.70;;;;;;;12.93;59.89;100446.22;5312060;26;20083;-94
2023/10/11 02:33:22;;;;;;;0.40;0.40;;;;;;;12.81;59.88;100444.84;5330463;26;20121;-94
2023/10/11 02:35:56;;;;;;;0.98;0.77;;;;;;;12.86;59.89;100442.94;5312461;26;20146;-94
2023/10/11 02:38:23;;;;;;;2.45;1.42;;;;;;;12.80;59.88;100440.50;5314550;26;20059;-94
2023/10/11 02:40:56;;;;;;;1.37;1.27;;;;;;;12.72;59.88;100434.63;5312596;26;20055;-94
2023/10/11 02:43:23;;;;;;;0.77;0.77;;;;;;;12.79;59.88;100442.28;5313473;26;20078;-94
2023/10/11 02:45:49;;;;;;;5.20;0.85;;;;;;;12.78;59.88;100439.72;5311605;26;20051;-94
2023/10/11 02:48:19;;;;;;;0.82;0.82;;;;;;;12.74;59.88;100431.06;5330114;26;20131;-95
2023/10/11 02:50:48;;;;;;;1.05;0.95;;;;;;;12.82;59.89;100425.66;5312522;26;20078;-94
2023/10/11 02:53:23;;;;;;;0.22;0.22;;;;;;;12.76;59.89;100417.97;5312494;26;20078;-94
2023/10/11 02:55:57;;;;;;;1.02;0.95;;;;;;;12.74;59.89;100420.63;5314468;26;20065;-95
2023/10/11 02:58:26;;;;;;;1.70;1.23;;;;;;;12.67;59.88;100426.94;5316035;26;20340;-94
2023/10/11 03:00:57;;;;;;;0.93;0.93;;;;;;;12.77;59.88;100424.91;5312331;26;20072;-95
2023/10/11 03:03:22;;;;;;;6.15;2.78;;;;;;;12.70;59.88;100420.78;5313073;26;20132;-96
2023/10/11 03:05:48;;;;;;;1.12;0.75;;;;;;;12.75;59.88;100424.94;5329851;26;20067;-95
2023/10/11 03:08:14;;;;;;;0.73;0.40;;;;;;;12.90;59.89;100423.63;5311621;26;20064;-94
2023/10/11 03:10:53;;;;;;;2.28;2.12;;;;;;;12.81;59.88;100431.78;5330090;26;20067;-94
2023/10/11 03:13:24;;;;;;;5.47;1.70;;;;;;;12.87;59.88;100434.19;5314767;26;20677;-94
2023/10/11 03:15:56;;;;;;;0.80;0.80;;;;;;;12.98;59.89;100431.22;5313483;26;20052;-94
2023/10/11 03:18:32;;;;;;;2.42;1.75;;;;;;;12.98;59.89;100424.25;5330800;26;20661;-93
2023/10/11 03:21:16;;;;;;;2.80;2.47;;;;;;;12.85;59.88;100420.31;5312620;26;20070;-94
2023/10/11 03:23:44;;;;;;;3.05;1.50;;;;;;;12.88;59.88;100415.00;5316803;26;20129;-95
2023/10/11 03:26:22;;;;;;;0.32;0.32;;;;;;;12.88;59.90;100423.69;5312475;26;20066;-95
2023/10/11 03:29:10;;;;;;;1.35;1.15;;;;;;;12.94;59.89;100430.47;5314382;26;20594;-94
2023/10/11 03:31:40;;;;;;;2.37;0.98;;;;;;;12.90;59.89;100427.09;5318714;26;20123;-92
2023/10/11 03:34:10;;;;;;;0.85;0.85;;;;;;;12.90;59.89;100439.31;5313149;26;20134;-94
2023/10/11 03:36:43;;;;;;;0.37;0.37;;;;;;;13.00;59.89;100435.50;5313820;26;20748;-94
2023/10/11 03:39:09;;;;;;;1.27;1.17;;;;;;;12.94;59.89;100443.53;5314750;26;20045;-95
2023/10/11 03:41:45;;;;;;;6.05;2.08;;;;;;;13.02;59.89;100435.50;5312365;26;20061;-95
2023/10/11 03:44:20;;;;;;;0.75;0.75;;;;;;;12.95;59.89;100432.19;5314696;26;20064;-94
2023/10/11 03:46:48;;;;;;;0.80;0.80;;;;;;;13.04;59.90;100431.91;5314581;26;20067;-94
2023/10/11 03:51:43;;;;;;;1.35;1.25;;;;;;;13.10;59.89;100430.88;5331616;26;20151;-94
2023/10/11 03:54:18;;;;;;;1.15;1.12;;;;;;;13.20;59.91;100437.53;5311979;26;20060;-94
2023/10/11 03:56:49;;;;;;;2.12;1.52;;;;;;;13.25;59.90;100427.81;5314436;26;20432;-95
2023/10/11 03:59:16;;;;;;;2.50;1.70;;;;;;;13.20;59.91;100432.31;5315552;26;20020;-94
2023/10/11 04:01:43;;;;;;;1.12;0.60;;;;;;;13.16;59.90;100428.91;5311629;26;21536;-94
2023/10/11 04:04:08;;;;;;;0.82;0.60;;;;;;;13.20;59.91;100433.16;5312757;26;20052;-93
2023/10/11 04:06:34;;;;;;;1.80;1.67;;;;;;;13.31;59.91;100424.13;5329297;26;28911;-93
2023/10/11 04:09:03;;;;;;;3.40;2.37;;;;;;;13.41;59.91;100425.53;5330527;26;20447;-95
2023/10/11 04:11:54;;;;;;;0.20;0.20;;;;;;;13.39;59.92;100428.19;5313120;26;20110;-95
2023/10/11 04:14:24;;;;;;;3.40;0.98;;;;;;;13.42;59.92;100442.94;5318527;26;20142;-94
2023/10/11 04:16:53;;;;;;;1.23;1.15;;;;;;;13.36;59.91;100427.44;5332147;26;20043;-93
2023/10/11 04:19:21;;;;;;;1.62;1.52;;;;;;;13.59;59.93;100419.69;5312968;26;20124;-94
2023/10/11 04:24:19;;;;;;;2.17;1.37;;;;;;;13.60;59.93;100420.56;5331625;26;20059;-94
2023/10/11 04:26:53;;;;;;;1.98;1.45;;;;;;;13.59;59.93;100426.69;5313649;26;20048;-95
2023/10/11 04:29:19;;;;;;;0.17;0.17;;;;;;;13.76;59.93;100432.22;5315090;26;20066;-93
2023/10/11 04:32:04;;;;;;;2.83;1.20;;;;;;;13.61;59.92;100432.72;5312195;26;20078;-94
2023/10/11 04:34:32;;;;;;;1.27;0.70;;;;;;;13.57;59.92;100431.97;5318097;26;20080;-94
2023/10/11 04:36:59;;;;;;;12.32;1.55;;;;;;;13.64;59.92;100433.47;5313190;26;20066;-93
2023/10/11 04:39:27;;;;;;;0.28;0.28;;;;;;;13.63;59.92;100442.22;5312681;26;20052;-95
2023/10/11 04:41:57;;;;;;;18.90;1.98;;;;;;;13.62;59.92;100437.91;5312893;26;20060;-94
2023/10/11 04:44:42;;;;;;;4.68;3.53;;;;;;;13.67;59.93;100435.12;5313002;26;20084;-95
2023/10/11 04:47:10;;;;;;;8.52;2.80;;;;;;;13.81;59.94;100433.75;5317108;26;20066;-95
2023/10/11 04:49:36;;;;;;;4.35;1.37;;;;;;;13.72;59.93;100438.44;5313235;26;20020;-94
2023/10/11 04:52:10;;;;;;;1.77;1.20;;;;;;;13.86;59.93;100443.22;5311696;26;20073;-94
2023/10/11 04:54:36;;;;;;;1.05;1.05;;;;;;;13.82;59.94;100443.31;5315150;26;20079;-93
2023/10/11 04:57:08;;;;;;;6.35;1.95;;;;;;;13.84;59.94;100445.88;5312099;26;20125;-94
2023/10/11 05:02:01;;;;;;;0.57;0.52;;;;;;;13.93;59.94;100445.56;5330058;26;20060;-92
2023/10/11 05:04:30;;;;;;;4.70;1.60;;;;;;;13.96;59.95;100440.25;5312713;26;20031;-92
2023/10/11 05:06:55;;;;;;;1.58;0.90;;;;;;;13.92;59.94;100443.00;5330606;26;20105;-94
2023/10/11 05:09:29;;;;;;;0.35;0.35;;;;;;;14.10;59.96;100447.59;5311978;26;20104;-94
2023/10/11 05:14:29;;;;;;;0.52;0.52;;;;;;;14.06;59.95;100457.31;5332544;26;20060;-95
2023/10/11 05:16:59;;;;;;;4.12;2.42;;;;;;;14.18;59.96;100449.94;5311527;26;20389;-94
2023/10/11 05:19:28;;;;;;;0.43;0.43;;;;;;;14.21;59.96;100455.09;5330846;26;20105;-95
2023/10/11 05:21:54;;;;;;;1.05;1.00;;;;;;;14.29;59.96;100459.12;5311902;26;20063;-94
2023/10/11 05:27:04;;;;;;;3.25;2.55;;;;;;;14.40;59.96;100466.59;5332689;26;20021;-94
2023/10/11 05:29:32;;;;;;;2.70;1.83;;;;;;;14.30;59.96;100471.31;5313816;26;20057;-95
2023/10/11 05:32:20;;;;;;;0.95;0.93;;;;;;;14.39;59.96;100476.19;5329941;26;20064;-95
2023/10/11 05:34:51;;;;;;;2.65;1.70;;;;;;;14.39;59.96;100478.81;5336164;26;20063;-96
2023/10/11 05:50:57;;;;;;;4.37;1.90;;;;;;;14.79;59.98;100463.44;5335670;26;20051;-94
2023/10/11 05:53:24;;;;;;;2.12;1.98;;;;;;;14.91;59.99;100460.37;5310862;26;20376;-94
2023/10/11 05:55:51;;;;;;;8.65;3.85;;;;;;;14.75;59.98;100454.84;5311734;26;20059;-95
2023/10/11 05:58:18;;;;;;;12.95;4.22;;;;;;;14.79;59.99;100461.66;5312107;26;20066;-94
2023/10/11 06:00:49;;;;;;;1.60;1.35;;;;;;;14.74;59.99;100463.63;5336206;26;20416;-95
2023/10/11 06:03:15;;;;;;;2.92;2.50;;;;;;;14.93;60.00;100474.25;5312382;26;20072;-95
2023/10/11 06:05:41;;;;;;;4.95;3.83;;;;;;;14.94;59.99;100473.34;5311316;26;20388;-95
2023/10/11 06:08:07;;;;;;;2.60;2.22;;;;;;;14.92;59.99;100480.41;5329101;26;20059;-94
2023/10/11 06:10:41;;;;;;;1.25;1.17;;;;;;;15.11;60.01;100481.41;5311633;26;20052;-94
2023/10/11 06:13:13;;;;;;;2.87;2.67;;;;;;;14.80;59.99;100491.34;5332548;26;20060;-94
2023/10/11 06:15:42;;;;;;;5.18;3.72;;;;;;;14.99;60.00;100487.13;5312908;26;20123;-94
2023/10/11 06:18:35;;;;;;;17.00;4.10;;;;;;;15.05;60.00;100487.75;5311603;26;20066;-94
2023/10/11 06:21:01;;;;;;;1.87;1.75;;;;;;;14.72;59.99;100491.66;5336102;26;20421;-95
2023/10/11 06:23:27;;;;;;;4.55;3.55;;;;;;;14.74;59.99;100481.97;5332269;26;20148;-94
2023/10/11 06:25:53;;;;;;;6.07;4.60;;;;;;;14.75;59.98;100483.66;5329361;26;20172;-94
2023/10/11 06:28:19;;;;;;;3.53;3.03;;;;;;;14.80;59.99;100481.72;5311247;26;20080;-94
2023/10/11 06:30:50;;;;;;;3.72;3.28;;;;;;;14.68;59.98;100484.81;5311190;26;20462;-94
2023/10/11 06:33:19;;;;;;;6.53;4.80;;;;;;;15.09;60.00;100479.75;5312021;26;20038;-94
2023/10/11 06:35:49;;;;;;;1.70;1.60;;;;;;;15.21;60.01;100474.91;5312406;26;20134;-94
2023/10/11 06:38:15;;;;;;;2.28;2.10;;;;;;;15.07;60.00;100484.19;5329815;26;20101;-95
2023/10/11 06:40:47;;;;;;;5.45;2.78;;;;;;;14.88;59.99;100484.03;5329214;26;20047;-94
2023/10/11 06:43:12;;;;;;;3.33;2.05;;;;;;;14.90;59.99;100488.31;5312555;26;20079;-94
2023/10/11 06:45:40;;;;;;;6.15;2.53;;;;;;;14.89;59.99;100489.22;5310791;26;20059;-95
2023/10/11 06:48:08;;;;;;;6.82;2.05;;;;;;;15.16;60.01;100483.88;5311400;26;20072;-94
2023/10/11 06:50:37;;;;;;;2.72;2.42;;;;;;;15.42;60.02;100488.94;5311740;26;20061;-94
2023/10/11 06:53:06;;;;;;;1.00;0.85;;;;;;;15.34;60.02;100483.12;5310768;26;20055;-94
2023/10/11 06:55:47;;;;;;;2.28;1.75;;;;;;;15.38;60.02;100486.47;5311934;26;20117;-93
2023/10/11 06:58:16;;;;;;;4.28;2.53;;;;;;;15.54;60.02;100484.94;5314075;26;20078;-92
2023/10/11 07:00:45;;;;;;;25.17;4.78;;;;;;;15.78;60.04;100486.59;5313225;26;20060;-93
2023/10/11 07:05:48;;;;;;;3.22;2.80;;;;;;;16.08;60.05;100487.06;5349751;26;20127;-94
2023/10/11 07:08:17;;;;;;;8.30;4.07;;;;;;;16.15;60.05;100485.91;5312556;26;20043;-95
2023/10/11 07:10:47;;;;;;;4.12;2.78;;;;;;;15.97;60.05;100484.06;5330686;26;20051;-94
2023/10/11 07:13:13;;;;;;;2.08;1.75;;;;;;;15.93;60.04;100487.72;5330787;26;20139;-93
2023/10/11 07:15:43;;;;;;;2.42;2.08;;;;;;;16.00;60.05;100489.16;5311769;26;20064;-94
2023/10/11 07:18:10;;;;;;;1.52;1.15;;;;;;;16.39;60.07;100486.59;5311636;26;20060;-92
2023/10/11 07:20:49;;;;;;;3.55;3.25;;;;;;;16.56;60.08;100493.72;5330307;26;20044;-92
2023/10/11 07:23:20;;;;;;;2.28;2.10;;;;;;;16.54;60.07;100499.03;5314638;26;20437;-93
2023/10/11 07:25:59;;;;;;;6.95;4.22;;;;;;;16.46;60.07;100493.28;5330289;26;20409;-95
2023/10/11 07:28:36;;;;;;;12.85;5.90;;;;;;;16.71;60.09;100492.22;5314674;26;20542;-93
2023/10/11 07:31:03;;;;;;;1.73;1.62;;;;;;;17.07;60.10;100485.28;5333446;26;20392;-93
2023/10/11 07:33:29;;;;;;;3.45;2.28;;;;;;;17.06;60.11;100494.09;5311466;26;20057;-94
2023/10/11 07:35:56;;;;;;;9.15;3.60;;;;;;;17.17;60.12;100488.31;5311544;26;20064;-94
2023/10/11 07:38:21;;;;;;;3.45;3.15;;;;;;;17.25;60.12;100487.94;5311609;26;20070;-93
2023/10/11 07:40:47;;;;;;;8.65;3.53;;;;;;;17.16;60.12;100491.84;5311446;26;20385;-93
2023/10/11 07:43:16;;;;;;;5.93;3.65;;;;;;;17.40;60.13;100489.84;5329584;26;20056;-93
2023/10/11 07:45:47;;;;;;;5.82;4.20;;;;;;;17.52;60.13;100484.00;5312256;26;20068;-93
2023/10/11 07:48:16;;;;;;;2.92;2.67;;;;;;;17.72;60.14;100486.50;5312205;26;20062;-94
2023/10/11 07:50:42;;;;;;;4.45;2.55;;;;;;;17.72;60.14;100489.13;5312128;26;20070;-94
2023/10/11 07:53:13;;;;;;;3.65;3.33;;;;;;;17.63;60.14;100489.56;5311590;26;20067;-94
2023/10/11 07:55:40;;;;;;;2.28;2.08;;;;;;;17.83;60.14;100480.72;5312674;26;20068;-94
2023/10/11 07:58:08;;;;;;;2.12;1.37;;;;;;;17.92;60.16;100485.50;5329715;26;20056;-94
2023/10/11 08:00:40;;;;;;;3.58;2.60;;;;;;;18.13;60.16;100480.06;5312156;26;20116;-93
2023/10/11 08:03:06;;;;;;;5.03;3.35;;;;;;;18.56;60.19;100476.91;5313858;26;20123;-93
2023/10/11 08:05:36;;;;;;;2.60;2.30;;;;;;;18.66;60.19;100472.84;5311319;26;20076;-94
2023/10/11 08:08:05;;;;;;;2.25;2.12;;;;;;;18.77;60.19;100479.34;5329797;26;20720;-94
2023/10/11 08:10:34;;;;;;;9.02;5.05;;;;;;;18.63;60.20;100488.84;5312152;26;20070;-94
2023/10/11 08:13:01;;;;;;;6.70;3.47;;;;;;;18.74;60.19;100480.38;5312179;26;20116;-94
2023/10/11 08:15:26;;;;;;;7.53;2.62;;;;;;;18.93;60.21;100482.88;5311404;26;20064;-92
2023/10/11 08:17:52;;;;;;;9.55;3.70;;;;;;;18.75;60.19;100486.50;5310896;26;20071;-93
2023/10/11 08:20:18;;;;;;;6.03;2.62;;;;;;;18.75;60.19;100491.78;5311197;26;20090;-93
2023/10/11 08:22:47;;;;;;;8.15;2.92;;;;;;;18.99;60.21;100479.88;5311137;26;20071;-94
2023/10/11 08:25:15;;;;;;;2.53;2.37;;;;;;;18.73;60.19;100486.59;5311978;26;20118;-93
2023/10/11 08:27:41;;;;;;;20.70;4.82;;;;;;;18.82;60.20;100478.16;5311508;26;20051;-93
2023/10/11 08:30:26;;;;;;;2.75;2.12;;;;;;;18.80;60.20;100481.81;5329876;26;20111;-95
2023/10/11 08:32:51;;;;;;;4.43;3.30;;;;;;;18.86;60.20;100473.56;5316759;26;20056;-94
2023/10/11 08:35:23;;;;;;;3.58;2.08;;;;;;;18.92;60.20;100470.59;5329323;26;20068;-94
2023/10/11 08:37:52;;;;;;;4.87;3.20;;;;;;;18.96;60.21;100473.00;5312771;26;20075;-93
2023/10/11 08:40:22;;;;;;;6.15;3.22;;;;;;;19.28;60.22;100468.53;5330281;26;20134;-93
2023/10/11 08:42:51;;;;;;;9.93;3.60;;;;;;;19.12;60.22;100472.97;5312569;26;20056;-93
2023/10/11 08:45:33;;;;;;;3.40;2.30;;;;;;;19.22;60.22;100470.69;5311117;26;20063;-93
2023/10/11 08:48:00;;;;;;;4.62;2.80;;;;;;;19.37;60.23;100464.53;5312477;26;20056;-93
2023/10/11 08:50:31;;;;;;;3.87;3.55;;;;;;;19.40;60.23;100466.12;5311373;26;20056;-93
2023/10/11 08:52:56;;;;;;;3.22;3.00;;;;;;;19.46;60.23;100452.59;5312108;26;20075;-93
2023/10/11 08:55:24;;;;;;;2.17;1.98;;;;;;;19.50;60.24;100462.91;5311172;26;20145;-93
2023/10/11 08:57:50;;;;;;;5.12;1.90;;;;;;;19.81;60.25;100462.00;5311758;26;20399;-92
2023/10/11 09:00:28;;;;;;;14.00;2.25;;;;;;;19.73;60.25;100463.38;5310783;26;20048;-93
2023/10/11 09:02:54;;;;;;;7.50;3.45;;;;;;;19.81;60.25;100469.91;5315070;26;20058;-93
2023/10/11 09:05:29;;;;;;;1.75;1.65;;;;;;;19.96;60.26;100462.03;5329352;26;20095;-93
2023/10/11 09:07:54;;;;;;;7.00;2.65;;;;;;;20.16;60.27;100459.06;5313525;26;20131;-92
2023/10/11 09:10:25;;;;;;;4.82;2.67;;;;;;;20.22;60.27;100462.16;5310920;26;20112;-92
2023/10/11 09:12:56;;;;;;;3.35;2.33;;;;;;;20.40;60.28;100462.88;5347637;26;20064;-92
2023/10/11 09:15:22;;;;;;;2.37;2.17;;;;;;;20.35;60.28;100464.06;5312443;26;20090;-93
2023/10/11 09:17:50;;;;;;;2.12;1.77;;;;;;;20.38;60.28;100470.03;5311144;26;20105;-92
2023/10/11 09:20:23;;;;;;;11.40;3.25;;;;;;;20.58;60.29;100465.31;5312040;26;20061;-93
2023/10/11 09:22:52;;;;;;;2.25;2.05;;;;;;;20.56;60.29;100464.56;5313052;26;20095;-95
2023/10/11 09:25:33;;;;;;;2.13;1.93;;;;;;;20.78;60.30;100462.28;5329739;26;20071;-93
2023/10/11 09:27:58;;;;;;;3.90;1.90;;;;;;;20.90;60.31;100461.53;5331288;26;20633;-93
2023/10/11 09:30:27;;;;;;;2.37;2.22;;;;;;;21.07;60.32;100463.94;5310871;26;20099;-93
2023/10/11 09:32:59;;;;;;;2.33;2.10;;;;;;;21.13;60.32;100458.25;5311787;26;20059;-93
2023/10/11 09:35:26;;;;;;;2.85;2.60;;;;;;;21.38;60.33;100459.34;5330093;26;20064;-92
2023/10/11 09:37:58;;;;;;;15.63;3.95;;;;;;;21.37;60.33;100465.59;5329519;26;20066;-93
2023/10/11 09:40:33;;;;;;;2.00;1.85;;;;;;;21.59;60.34;100465.88;5310852;26;20342;-92
2023/10/11 09:43:01;;;;;;;6.78;2.40;;;;;;;21.64;60.35;100466.41;5330377;26;20079;-93
2023/10/11 09:45:41;;;;;;;1.15;1.15;;;;;;;21.69;60.35;100460.78;5311562;26;20075;-94
2023/10/11 09:48:07;;;;;;;;;;;;;;;21.88;60.36;100452.47;5331247;26;20119;-94
2023/10/11 09:50:33;;;;;;;1.67;1.58;;;;;;;22.07;60.37;100455.59;5347886;26;19992;-94
2023/10/11 09:53:00;;;;;;;1.92;1.83;;;;;;;21.96;60.37;100450.13;5310584;26;20102;-93
2023/10/11 09:55:31;;;;;;;15.55;3.15;;;;;;;22.05;60.37;100455.72;5311245;26;20067;-93
2023/10/11 09:58:11;;;;;;;2.58;2.15;;;;;;;22.11;60.37;100459.72;5311949;26;20143;-93
2023/10/11 10:01:08;;;;;;;2.28;2.08;;;;;;;22.24;60.37;100463.25;5311751;26;20052;-93
2023/10/11 10:03:38;;;;;;;2.78;1.85;;;;;;;22.11;60.36;100456.22;5329982;26;20102;-93
2023/10/11 10:06:21;;;;;;;3.20;2.28;;;;;;;22.25;60.38;100454.34;5329772;26;20071;-93
2023/10/11 10:12:11;;;;;;;5.72;2.53;;;;;;;22.39;60.38;100455.16;5367543;26;20071;-93
2023/10/11 10:14:36;;;;;;;4.45;2.35;;;;;;;22.43;60.39;100446.03;5347403;26;20109;-92
2023/10/11 10:17:15;;;;;;;10.52;1.95;;;;;;;22.57;60.39;100443.28;5329069;26;20404;-93
2023/10/11 10:19:47;;;;;;;2.83;1.87;;;;;;;22.66;60.41;100432.00;5310868;26;20060;-93
2023/10/11 10:22:17;;;;;;;3.28;2.85;;;;;;;22.82;60.41;100434.44;5310975;26;20068;-93
2023/10/11 10:24:46;;;;;;;1.90;1.33;;;;;;;22.97;60.42;100428.03;5310814;26;20458;-93
2023/10/11 10:27:33;;;;;;;1.92;0.62;;;;;;;23.12;60.43;100424.22;5310672;26;20087;-94
2023/10/11 10:30:04;;;;;;;1.75;1.17;;;;;;;23.16;60.43;100424.84;5347632;26;20069;-94
2023/10/11 10:32:29;;;;;;;3.03;1.95;;;;;;;23.41;60.44;100421.22;5311878;26;20052;-93
2023/10/11 10:35:19;;;;;;;0.25;0.25;;;;;;;23.50;60.44;100412.59;5310591;26;20068;-94
2023/10/11 10:37:56;;;;;;;0.60;0.60;;;;;;;23.69;60.46;100410.25;5347429;26;20032;-94
2023/10/11 10:40:25;;;;;;;3.00;1.87;;;;;;;23.77;60.47;100407.00;5311014;26;20726;-93
2023/10/11 10:43:06;;;;;;;1.77;1.30;;;;;;;23.87;60.47;100410.66;5328907;26;20108;-94
2023/10/11 10:45:31;;;;;;;3.95;1.60;;;;;;;23.96;60.46;100404.62;5347244;26;20067;-93
2023/10/11 10:48:23;;;;;;;0.85;0.85;;;;;;;24.03;60.47;100391.72;5310706;26;20067;-94
2023/10/11 10:51:04;;;;;;;9.43;1.73;;;;;;;24.19;60.48;100385.06;5323789;26;20499;-93
2023/10/11 10:53:50;;;;;;;1.17;1.17;;;;;;;24.28;60.48;100394.16;5329936;26;20055;-93
2023/10/11 10:56:25;;;;;;;1.48;1.37;;;;;;;24.34;60.49;100387.50;5330223;26;20079;-92
2023/10/11 10:59:04;;;;;;;0.47;0.47;;;;;;;24.54;60.51;100385.94;5310889;26;20437;-93
2023/10/11 11:01:33;;;;;;;0.95;0.65;;;;;;;24.54;60.51;100380.59;5330034;26;20125;-93
2023/10/11 11:04:08;;;;;;;0.52;0.52;;;;;;;24.58;60.50;100380.22;5312842;26;20484;-93
2023/10/11 11:06:47;;;;;;;1.35;1.25;;;;;;;24.80;60.51;100368.69;5312689;26;20713;-92
2023/10/11 11:09:15;;;;;;;0.93;0.70;;;;;;;24.66;60.51;100361.84;5311681;26;20507;-93
2023/10/11 11:11:41;;;;;;;4.97;1.20;;;;;;;24.64;60.51;100360.28;5310661;26;20025;-94
2023/10/11 11:14:13;;;;;;;0.65;0.52;;;;;;;24.96;60.52;100360.31;5310398;26;20044;-93
2023/10/11 11:16:39;;;;;;;0.47;0.47;;;;;;;25.09;60.54;100358.38;5328688;26;20078;-94
2023/10/11 11:19:17;;;;;;;2.00;0.73;;;;;;;25.14;60.52;100352.66;5310244;26;20063;-92
2023/10/11 11:21:46;;;;;;;0.65;0.65;;;;;;;25.19;60.54;100347.78;5328649;26;20051;-93
2023/10/11 11:24:18;;;;;;;0.98;0.77;;;;;;;25.25;60.54;100344.59;5329086;26;20055;-93
2023/10/11 11:26:43;;;;;;;2.83;0.40;;;;;;;25.34;60.55;100336.69;5329271;26;20101;-93
2023/10/11 11:29:11;;;;;;;0.88;0.62;;;;;;;25.32;60.54;100338.66;5310396;26;20071;-92
2023/10/11 11:31:52;;;;;;;4.37;0.73;;;;;;;25.53;60.55;100343.09;5311174;26;20446;-93
2023/10/11 11:34:27;;;;;;;0.30;0.30;;;;;;;25.52;60.55;100328.09;5328941;26;20044;-93
2023/10/11 11:36:59;;;;;;;12.20;1.37;;;;;;;25.61;60.56;100330.84;5313003;26;20063;-93
2023/10/11 11:39:36;;;;;;;2.67;1.62;;;;;;;25.56;60.55;100319.72;5310287;26;20093;-93
2023/10/11 11:42:07;;;;;;;0.52;0.52;;;;;;;25.64;60.56;100322.56;5313555;26;20117;-92
2023/10/11 11:44:33;;;;;;;3.75;1.40;;;;;;;25.69;60.56;100315.06;5329467;26;20395;-93
2023/10/11 11:47:05;;;;;;;1.02;0.95;;;;;;;25.85;60.57;100309.25;5328537;26;20095;-93
2023/10/11 11:49:33;;;;;;;1.17;1.08;;;;;;;25.90;60.58;100303.50;5312491;26;20068;-94
2023/10/11 11:51:58;;;;;;;0.70;0.70;;;;;;;25.91;60.57;100300.69;5311795;26;20701;-93
2023/10/11 11:54:28;;;;;;;1.42;1.33;;;;;;;25.82;60.57;100300.66;5311284;26;20081;-94
2023/10/11 11:56:54;;;;;;;0.65;0.65;;;;;;;25.97;60.58;100302.81;5312658;26;20115;-93
2023/10/11 11:59:20;;;;;;;0.15;0.15;;;;;;;25.91;60.57;100302.53;5329835;26;20067;-93
2023/10/11 12:02:01;;;;;;;0.00;0.00;;;;;;;25.87;60.58;100296.62;5312883;26;20763;-94
2023/10/11 12:04:31;;;;;;;1.20;0.80;;;;;;;26.04;60.59;100302.31;5331186;26;20059;-92
2023/10/11 12:07:01;;;;;;;1.65;1.48;;;;;;;26.08;60.58;100301.06;5312301;26;20127;-93
2023/10/11 12:09:32;;;;;;;0.65;0.45;;;;;;;26.14;60.58;100293.34;5311819;26;20082;-94
2023/10/11 12:12:03;;;;;;;1.77;1.65;;;;;;;26.26;60.59;100292.28;5330359;26;20056;-94